Oglasa — ITMG — position and weather

sailwx.info

Track history (hours):
 
Tides and Currents Weather Stations Pressure Air Temp Water Temp Dewpoint Dewpoint Depression Visibility Wind Speed Wind Dir Waves Ship Positions

Oglasa

Last reported at 2016-Aug-30 14:24 UTC. Time now 2016-Aug-31 00:28 UTC.
Position N 42°49' E 010°21'.

Length 91 m; draft 3.8 m.

Type: Ship. MMSI: 247046800.

Date/timePositionNaut miles runAvg speedWind from/ knotsBaromVisibWave heightAir tempDewpointWater temp
2016-Aug-30 14:24N 42°49' E 010°21'1213.6
2016-Aug-30 13:33N 42°56' E 010°33'6 5.9
2016-Aug-30 12:34N 42°53' E 010°26'7 6.0
2016-Aug-30 11:28N 42°49' E 010°20'6 3.4
2016-Aug-30 09:33N 42°53' E 010°26'6 6.5
2016-Aug-30 08:33N 42°49' E 010°19'7 2.2
2016-Aug-30 05:33N 42°53' E 010°26'7 6.8
2016-Aug-30 04:33N 42°49' E 010°19'7 0.6
2016-Aug-29 17:33N 42°53' E 010°27'5 3.7
2016-Aug-29 16:16N 42°50' E 010°22'1 0.5
2016-Aug-29 13:13N 42°51' E 010°23'3 0.4
2016-Aug-29 04:24N 42°49' E 010°20'12 5.4
2016-Aug-29 02:14N 42°56' E 010°33'5 0.6
2016-Aug-28 17:34N 42°53' E 010°27'7 6.8
2016-Aug-28 16:33N 42°49' E 010°19'7 3.5
2016-Aug-28 14:33N 42°53' E 010°27'7 6.9
2016-Aug-28 13:33N 42°49' E 010°19'7 3.4
2016-Aug-28 11:33N 42°53' E 010°27'7 6.7
2016-Aug-28 10:32N 42°49' E 010°19'7 3.6
2016-Aug-28 08:33N 42°53' E 010°27'7 6.6
2016-Aug-28 07:29N 42°49' E 010°20'12 8.6
2016-Aug-28 06:06N 42°56' E 010°33'5 9.9
2016-Aug-28 05:34N 42°53' E 010°26'7 6.8
2016-Aug-28 04:33N 42°49' E 010°19'8 0.7
2016-Aug-27 17:33N 42°53' E 010°27'7 6.9
2016-Aug-27 16:29N 42°49' E 010°19'1313.7
2016-Aug-27 15:34N 42°56' E 010°34'11 5.3
2016-Aug-27 13:25N 42°49' E 010°21'5 2.6
2016-Aug-27 11:33N 42°53' E 010°26'6 6.1
2016-Aug-27 10:33N 42°49' E 010°19'7 3.3
2016-Aug-27 08:33N 42°53' E 010°26'7 6.4
2016-Aug-27 07:32N 42°49' E 010°19'1212.3
2016-Aug-27 06:32N 42°56' E 010°33'12 6.1
2016-Aug-27 04:33N 42°49' E 010°19'1312.6
2016-Aug-27 03:33N 42°56' E 010°33'0 0.0
2016-Aug-26 18:04N 42°56' E 010°33'510.2
2016-Aug-26 17:34N 42°53' E 010°27'7 7.0
2016-Aug-26 16:33N 42°49' E 010°19'7 3.3
2016-Aug-26 14:34N 42°53' E 010°26'7 6.7
2016-Aug-26 13:33N 42°49' E 010°19'7 3.3
2016-Aug-26 11:34N 42°53' E 010°26'6 6.3
2016-Aug-26 10:32N 42°49' E 010°19'0 0.0
2016-Aug-26 07:32N 42°49' E 010°19'0 0.0
2016-Aug-26 04:27N 42°49' E 010°20'7 0.5
2016-Aug-25 15:34N 42°53' E 010°26'7 6.6
2016-Aug-25 14:31N 42°49' E 010°19'7 3.6
2016-Aug-25 12:34N 42°53' E 010°27'7 6.8
2016-Aug-25 11:30N 42°49' E 010°19'6 3.2
2016-Aug-25 09:33N 42°53' E 010°26'6 6.0
2016-Aug-25 08:30N 42°49' E 010°19'0 0.0
2016-Aug-25 04:33N 42°49' E 010°19'7 0.6
2016-Aug-24 15:34N 42°53' E 010°27'7 6.9
2016-Aug-24 14:32N 42°49' E 010°19'7 3.5
2016-Aug-24 12:33N 42°53' E 010°27'7 6.9
2016-Aug-24 11:32N 42°49' E 010°19'1 0.4
2016-Aug-24 08:22N 42°49' E 010°21'11 0.7
2016-Aug-23 16:05N 42°56' E 010°33'611.0
2016-Aug-23 15:33N 42°53' E 010°26'6 6.5
2016-Aug-23 14:33N 42°49' E 010°20'1212.1
2016-Aug-23 13:33N 42°56' E 010°33'6 5.7
2016-Aug-23 12:34N 42°53' E 010°26'5 4.1
2016-Aug-23 11:22N 42°50' E 010°21'5 2.7
2016-Aug-23 09:33N 42°53' E 010°26'0 0.0
2016-Aug-23 05:33N 42°53' E 010°26'7 6.6
2016-Aug-23 04:33N 42°49' E 010°19'7 0.6
2016-Aug-22 17:34N 42°53' E 010°26'7 6.5
2016-Aug-22 16:33N 42°49' E 010°19'7 3.3
2016-Aug-22 14:33N 42°53' E 010°26'7 6.1
2016-Aug-22 13:29N 42°49' E 010°19'6 3.3
2016-Aug-22 11:33N 42°53' E 010°26'6 5.7
2016-Aug-22 10:28N 42°49' E 010°20'3 0.8
2016-Aug-22 07:18N 42°50' E 010°22'4 2.4
2016-Aug-22 05:33N 42°53' E 010°27'7 6.9
2016-Aug-22 04:33N 42°49' E 010°19'0 0.0
2016-Aug-21 16:32N 42°49' E 010°19'2 1.1
2016-Aug-21 14:17N 42°51' E 010°22'3 3.0
2016-Aug-21 13:28N 42°49' E 010°20'7 3.7
2016-Aug-21 11:33N 42°53' E 010°27'7 6.2
2016-Aug-21 10:25N 42°49' E 010°20'2 0.5
2016-Aug-21 07:19N 42°50' E 010°21'4 2.5
2016-Aug-21 05:30N 42°53' E 010°25'1 0.1
2016-Aug-20 17:32N 42°53' E 010°26'7 6.2
2016-Aug-20 16:28N 42°49' E 010°19'7 3.5
2016-Aug-20 14:33N 42°53' E 010°26'  
Track history (hours):
 
Tides and Currents Weather Stations Pressure Air Temp Water Temp Dewpoint Dewpoint Depression Visibility Wind Speed Wind Dir Waves Ship Positions

Oglasa

Last reported at 2016-Aug-30 14:24 UTC. Time now 2016-Aug-31 00:28 UTC.
Position N 42°49' E 010°21'.

Length 91 m; draft 3.8 m.

Type: Ship. MMSI: 247046800.

Date/timePositionNaut miles runAvg speedWind from/ knotsBaromVisibWave heightAir tempDewpointWater temp
2016-Aug-30 14:24N 42°49' E 010°21'1213.6
2016-Aug-30 13:33N 42°56' E 010°33'6 5.9
2016-Aug-30 12:34N 42°53' E 010°26'7 6.0
2016-Aug-30 11:28N 42°49' E 010°20'6 3.4
2016-Aug-30 09:33N 42°53' E 010°26'6 6.5
2016-Aug-30 08:33N 42°49' E 010°19'7 2.2
2016-Aug-30 05:33N 42°53' E 010°26'7 6.8
2016-Aug-30 04:33N 42°49' E 010°19'7 0.6
2016-Aug-29 17:33N 42°53' E 010°27'5 3.7
2016-Aug-29 16:16N 42°50' E 010°22'1 0.5
2016-Aug-29 13:13N 42°51' E 010°23'3 0.4
2016-Aug-29 04:24N 42°49' E 010°20'12 5.4
2016-Aug-29 02:14N 42°56' E 010°33'5 0.6
2016-Aug-28 17:34N 42°53' E 010°27'7 6.8
2016-Aug-28 16:33N 42°49' E 010°19'7 3.5
2016-Aug-28 14:33N 42°53' E 010°27'7 6.9
2016-Aug-28 13:33N 42°49' E 010°19'7 3.4
2016-Aug-28 11:33N 42°53' E 010°27'7 6.7
2016-Aug-28 10:32N 42°49' E 010°19'7 3.6
2016-Aug-28 08:33N 42°53' E 010°27'7 6.6
2016-Aug-28 07:29N 42°49' E 010°20'12 8.6
2016-Aug-28 06:06N 42°56' E 010°33'5 9.9
2016-Aug-28 05:34N 42°53' E 010°26'7 6.8
2016-Aug-28 04:33N 42°49' E 010°19'8 0.7
2016-Aug-27 17:33N 42°53' E 010°27'7 6.9
2016-Aug-27 16:29N 42°49' E 010°19'1313.7
2016-Aug-27 15:34N 42°56' E 010°34'11 5.3
2016-Aug-27 13:25N 42°49' E 010°21'5 2.6
2016-Aug-27 11:33N 42°53' E 010°26'6 6.1
2016-Aug-27 10:33N 42°49' E 010°19'7 3.3
2016-Aug-27 08:33N 42°53' E 010°26'7 6.4
2016-Aug-27 07:32N 42°49' E 010°19'1212.3
2016-Aug-27 06:32N 42°56' E 010°33'12 6.1
2016-Aug-27 04:33N 42°49' E 010°19'1312.6
2016-Aug-27 03:33N 42°56' E 010°33'0 0.0
2016-Aug-26 18:04N 42°56' E 010°33'510.2
2016-Aug-26 17:34N 42°53' E 010°27'7 7.0
2016-Aug-26 16:33N 42°49' E 010°19'7 3.3
2016-Aug-26 14:34N 42°53' E 010°26'7 6.7
2016-Aug-26 13:33N 42°49' E 010°19'7 3.3
2016-Aug-26 11:34N 42°53' E 010°26'6 6.3
2016-Aug-26 10:32N 42°49' E 010°19'0 0.0
2016-Aug-26 07:32N 42°49' E 010°19'0 0.0
2016-Aug-26 04:27N 42°49' E 010°20'7 0.5
2016-Aug-25 15:34N 42°53' E 010°26'7 6.6
2016-Aug-25 14:31N 42°49' E 010°19'7 3.6
2016-Aug-25 12:34N 42°53' E 010°27'7 6.8
2016-Aug-25 11:30N 42°49' E 010°19'6 3.2
2016-Aug-25 09:33N 42°53' E 010°26'6 6.0
2016-Aug-25 08:30N 42°49' E 010°19'0 0.0
2016-Aug-25 04:33N 42°49' E 010°19'7 0.6
2016-Aug-24 15:34N 42°53' E 010°27'7 6.9
2016-Aug-24 14:32N 42°49' E 010°19'7 3.5
2016-Aug-24 12:33N 42°53' E 010°27'7 6.9
2016-Aug-24 11:32N 42°49' E 010°19'1 0.4
2016-Aug-24 08:22N 42°49' E 010°21'11 0.7
2016-Aug-23 16:05N 42°56' E 010°33'611.0
2016-Aug-23 15:33N 42°53' E 010°26'6 6.5
2016-Aug-23 14:33N 42°49' E 010°20'1212.1
2016-Aug-23 13:33N 42°56' E 010°33'6 5.7
2016-Aug-23 12:34N 42°53' E 010°26'5 4.1
2016-Aug-23 11:22N 42°50' E 010°21'5 2.7
2016-Aug-23 09:33N 42°53' E 010°26'0 0.0
2016-Aug-23 05:33N 42°53' E 010°26'7 6.6
2016-Aug-23 04:33N 42°49' E 010°19'7 0.6
2016-Aug-22 17:34N 42°53' E 010°26'7 6.5
2016-Aug-22 16:33N 42°49' E 010°19'7 3.3
2016-Aug-22 14:33N 42°53' E 010°26'7 6.1
2016-Aug-22 13:29N 42°49' E 010°19'6 3.3
2016-Aug-22 11:33N 42°53' E 010°26'6 5.7
2016-Aug-22 10:28N 42°49' E 010°20'3 0.8
2016-Aug-22 07:18N 42°50' E 010°22'4 2.4
2016-Aug-22 05:33N 42°53' E 010°27'7 6.9
2016-Aug-22 04:33N 42°49' E 010°19'0 0.0
2016-Aug-21 16:32N 42°49' E 010°19'2 1.1
2016-Aug-21 14:17N 42°51' E 010°22'3 3.0
2016-Aug-21 13:28N 42°49' E 010°20'7 3.7
2016-Aug-21 11:33N 42°53' E 010°27'7 6.2
2016-Aug-21 10:25N 42°49' E 010°20'2 0.5
2016-Aug-21 07:19N 42°50' E 010°21'4 2.5
2016-Aug-21 05:30N 42°53' E 010°25'1 0.1
2016-Aug-20 17:32N 42°53' E 010°26'7 6.2
2016-Aug-20 16:28N 42°49' E 010°19'7 3.5
2016-Aug-20 14:33N 42°53' E 010°26'  

Dump ship's entire track history